| time (UTC) | temp C | wind direction | speed KPH | gust KPH | rain 1hr cm | rain 24hr cm | rain mn cm | humidity % | barometer mb |
| 20260505091530 | 2 | 322 | 1.6 | 14.5 | 0.10 | 0.53 | 0.13 | 93 | 1013.8 |
| 20260505090035 | 2 | 0 | 0.0 | 0.0 | 0.03 | 0.46 | 0.05 | 93 | 1014.0 |
| 20260505084534 | 2 | 0 | 0.0 | 0.0 | 0.05 | 0.46 | 0.05 | 93 | 1014.0 |
| 20260505083035 | 3 | 0 | 0.0 | 3.2 | 0.03 | 0.43 | 0.03 | 93 | 1014.1 |
| 20260505081532 | 3 | 0 | 0.0 | 0.0 | 0.03 | 0.43 | 0.03 | 93 | 1014.2 |
| 20260505080030 | 3 | 0 | 0.0 | 0.0 | 0.03 | 0.43 | 0.03 | 93 | 1014.1 |
| 20260505074534 | 3 | 0 | 0.0 | 0.0 | 0.00 | 0.41 | 0.00 | 93 | 1014.3 |
| 20260505073029 | 3 | 0 | 0.0 | 0.0 | 0.00 | 0.41 | 0.00 | 93 | 1014.6 |
| 20260505071528 | 3 | 0 | 0.0 | 0.0 | 0.00 | 0.41 | 0.00 | 93 | 1014.6 |
| 20260505070031 | 3 | 0 | 0.0 | 0.0 | 0.00 | 0.41 | 0.00 | 92 | 1014.7 |
| 20260505064534 | 2 | 0 | 0.0 | 0.0 | 0.00 | 0.41 | 0.00 | 92 | 1014.8 |
| 20260505063029 | 2 | 0 | 0.0 | 0.0 | 0.00 | 0.41 | 0.00 | 92 | 1014.6 |
| 20260505061529 | 2 | 0 | 0.0 | 0.0 | 0.00 | 0.41 | 0.00 | 92 | 1014.8 |
| 20260505060030 | 2 | 0 | 0.0 | 0.0 | 0.00 | 0.41 | 0.00 | 91 | 1014.8 |
| 20260505054544 | 2 | 0 | 0.0 | 0.0 | 0.00 | 0.41 | 0.41 | 90 | 1014.9 |
| 20260505053033 | 2 | 0 | 0.0 | 0.0 | 0.00 | 0.41 | 0.41 | 90 | 1014.8 |
| 20260505051532 | 3 | 0 | 0.0 | 0.0 | 0.00 | 0.41 | 0.41 | 90 | 1014.6 |
| 20260505041530 | 4 | 0 | 0.0 | 0.0 | 0.00 | 0.41 | 0.41 | 90 | 1014.8 |
| 20260505040031 | 4 | 0 | 0.0 | 0.0 | 0.00 | 0.41 | 0.41 | 90 | 1014.8 |
| 20260505034535 | 4 | 0 | 0.0 | 0.0 | 0.00 | 0.41 | 0.41 | 90 | 1014.7 |
| 20260505033030 | 5 | 0 | 0.0 | 0.0 | 0.00 | 0.41 | 0.41 | 90 | 1014.7 |
| 20260505031532 | 5 | 0 | 0.0 | 0.0 | 0.00 | 0.41 | 0.41 | 90 | 1014.6 |
| 20260505030043 | 5 | 308 | 0.0 | 1.6 | 0.03 | 0.41 | 0.41 | 90 | 1014.4 |
| 20260505024530 | 5 | 0 | 0.0 | 0.0 | 0.03 | 0.41 | 0.41 | 91 | 1014.3 |
| 20260505023039 | 5 | 0 | 0.0 | 0.0 | 0.03 | 0.41 | 0.41 | 90 | 1014.2 |
| 20260505021531 | 5 | 0 | 0.0 | 0.0 | 0.00 | 0.38 | 0.38 | 90 | 1014.3 |
| 20260505020028 | 5 | 0 | 0.0 | 0.0 | 0.00 | 0.38 | 0.38 | 89 | 1014.4 |
| 20260505014537 | 5 | 0 | 0.0 | 0.0 | 0.00 | 0.38 | 0.38 | 89 | 1014.4 |
| 20260505013035 | 5 | 0 | 0.0 | 0.0 | 0.03 | 0.38 | 0.38 | 89 | 1014.3 |
| 20260505011531 | 5 | 0 | 0.0 | 0.0 | 0.28 | 0.38 | 0.38 | 88 | 1014.3 |
| 20260505010031 | 5 | 0 | 0.0 | 0.0 | 0.38 | 0.38 | 0.38 | 86 | 1014.5 |
| 20260505004553 | 5 | 0 | 0.0 | 1.6 | 0.38 | 0.38 | 0.38 | 85 | 1014.6 |
| 20260505003030 | 5 | 0 | 0.0 | 3.2 | 0.36 | 0.36 | 0.36 | 80 | 1014.8 |
| 20260505001536 | 9 | 0 | 0.0 | 6.4 | 0.05 | 0.05 | 0.05 | 68 | 1014.8 |
| 20260505000033 | 10 | 0 | 0.0 | 3.2 | 0.00 | 0.00 | 0.00 | 58 | 1014.1 |
| 20260504234529 | 10 | 0 | 0.0 | 17.7 | 0.00 | 0.00 | 0.00 | 58 | 1013.6 |
| 20260504233028 | 10 | 81 | 0.0 | 16.1 | 0.00 | 0.00 | 0.00 | 55 | 1013.3 |
| 20260504231535 | 10 | 0 | 0.0 | 9.7 | 0.00 | 0.00 | 0.00 | 55 | 1013.3 |
| 20260504230030 | 10 | 0 | 0.0 | 12.9 | 0.00 | 0.00 | 0.00 | 57 | 1013.3 |
| 20260504224535 | 10 | 0 | 0.0 | 14.5 | 0.00 | 0.00 | 0.00 | 56 | 1013.3 |
| 20260504223029 | 10 | 0 | 0.0 | 16.1 | 0.00 | 0.00 | 0.00 | 56 | 1013.1 |
| 20260504221538 | 10 | 0 | 0.0 | 8.0 | 0.00 | 0.00 | 0.00 | 54 | 1013.4 |
| 20260504220032 | 10 | 0 | 1.6 | 16.1 | 0.00 | 0.00 | 0.00 | 52 | 1012.8 |
| 20260504214531 | 11 | 0 | 0.0 | 17.7 | 0.00 | 0.00 | 0.00 | 46 | 1012.8 |
| 20260504213039 | 12 | 0 | 0.0 | 3.2 | 0.00 | 0.00 | 0.00 | 42 | 1012.3 |
| 20260504211534 | 12 | 0 | 0.0 | 9.7 | 0.00 | 0.00 | 0.00 | 45 | 1012.2 |
| 20260504210029 | 11 | 0 | 0.0 | 0.0 | 0.00 | 0.00 | 0.00 | 46 | 1012.8 |
| 20260504204534 | 11 | 0 | 0.0 | 9.7 | 0.00 | 0.00 | 0.00 | 46 | 1013.0 |
| 20260504203034 | 12 | 0 | 0.0 | 3.2 | 0.00 | 0.00 | 0.00 | 44 | 1013.3 |
| 20260504201530 | 12 | 0 | 0.0 | 0.0 | 0.00 | 0.00 | 0.00 | 43 | 1013.4 |
| 20260504200032 | 12 | 0 | 0.0 | 6.4 | 0.00 | 0.00 | 0.00 | 41 | 1013.5 |
| 20260504194530 | 13 | 0 | 0.0 | 24.1 | 0.00 | 0.00 | 0.00 | 37 | 1013.4 |
| 20260504193030 | 13 | 0 | 1.6 | 25.7 | 0.00 | 0.00 | 0.00 | 40 | 1013.2 |
| 20260504191554 | 13 | 0 | 0.0 | 12.9 | 0.00 | 0.00 | 0.00 | 40 | 1013.3 |
| 20260504190034 | 13 | 0 | 0.0 | 11.3 | 0.00 | 0.00 | 0.00 | 42 | 1013.4 |
| 20260504184541 | 13 | 0 | 0.0 | 6.4 | 0.00 | 0.00 | 0.00 | 38 | 1013.7 |
| 20260504183031 | 13 | 0 | 0.0 | 0.0 | 0.00 | 0.00 | 0.00 | 37 | 1013.7 |
| 20260504181528 | 12 | 0 | 0.0 | 1.6 | 0.00 | 0.00 | 0.00 | 39 | 1013.9 |
| 20260504180034 | 12 | 0 | 0.0 | 22.5 | 0.00 | 0.00 | 0.00 | 39 | 1014.0 |
| 20260504174530 | 12 | 281 | 4.8 | 20.9 | 0.00 | 0.00 | 0.00 | 38 | 1013.9 |
| 20260504173029 | 12 | 0 | 0.0 | 22.5 | 0.00 | 0.00 | 0.00 | 39 | 1013.9 |
| 20260504171529 | 12 | 0 | 3.2 | 30.6 | 0.00 | 0.00 | 0.00 | 39 | 1014.3 |